Seekonk, MA

6:00 PM EDT on September 01, 2014 (GMT -0400)
Rumford | Change Station
CLOSE
Current Station
Personal Weather Station
Location: East Providence, RI
Elevation: 65 ft
Nearby Weather Stations

Elev 65 ft 41.85 °N, 71.35 °W | Updated 5 minutes ago

Clear
Clear
86.6 °F
Feels Like 92 °F
N
3.0
Wind Variable Wind from WSW
Gusts 4.0 mph

Today
High -- | Low -- °F
--% Chance of Precip.
Yesterday
High -- | Low -- °F
Precip. -- in
6:11 AM 7:18 PM
Waxing Crescent, 44% visible
Pressure 29.92 in
Visibility 10.0 miles
Clouds Few 3700 ft
Few 5500 ft
Few 30000 ft
Heat Index 92 °F
Dew Point 71 °F
Humidity 59%
Rainfall 0.00 in
Snow Depth Not available.
UV 0.0 out of 12
Pollen 4.30 out of 12
PM2.5 Moderate
Flu Activity Not available.
METAR KPVD 012151Z 26010KT 10SM FEW037 FEW055 FEW300 29/21 A2992 RMK AO2 SLP132 T02940211 $

More Conditions Fewer Conditions

Pressure 29.92 in
Visibility 10.0 miles
Clouds Few 3700 ft
Few 5500 ft
Few 30000 ft
Heat Index 92 °F
Dew Point 71 °F
Humidity 59%
Rainfall 0.00 in
Snow Depth Not available.
UV 0.0 out of 12
Pollen 4.30 out of 12
PM2.5 Moderate
Flu Activity Not available.
METAR KPVD 012151Z 26010KT 10SM FEW037 FEW055 FEW300 29/21 A2992 RMK AO2 SLP132 T02940211 $

More Conditions Fewer Conditions

10-Day Weather Forecast

Almanac

Astronomy

Sep. 01, 2014 Rise Set
Actual Time 6:11 AM EDT 7:18 PM EDT
Civil Twilight 5:42 AM EDT 7:47 PM EDT
Nautical Twilight 5:08 AM EDT 8:21 PM EDT
Astronomical Twilight 4:32 AM EDT 8:57 PM EDT
Moon 12:59 PM EDT 11:11 PM EDT
Length of Visible Light 14h 04m
Length of Day
13h 07m
Tomorrow will be 2m 42s shorter.
Waxing Crescent, 44% of the Moon is Illuminated
Today
Waxing Crescent
Sep 2
First Quarter
Sep 8
Full
Sep 15
Last Quarter
Sep 24
New

Today's Extremes

State Highs State Lows

Community

WunderPhotos

Upload Photos

1,749,419 photos uploaded!

Nearby

Air Quality

  Air Quality AQ Index Pollutant
Yesterday Good
PM2.5
Yesterday Good
OZONE
Current Moderate
PM2.5
Monday Moderate
PM2.5
Monday Good
OZONE
Tuesday Moderate
PM2.5
Tuesday Good
OZONE

Snow Depth

Station Depth Elevation
No new snow has been reported.

Earthquake Activity

City Distance Mag. Time & Date
No recent earthquake activity has been reported nearby.
Minimum magnitude displayed is 2.5.

Coastal Water Temperatures

Place Temperature
Newport, RI 72.0 °F
Quonset Point, RI 73.0 °F
Conimicut Light, RI 73.0 °F

Nearby Weather Stations